Haines Falls, NY (12436)

5:45 PM EDT on March 26, 2017 (GMT -0400)
| | Change Station
Active Advisory: Freezing Rain Advisory

Elev -9999 ft 0.00 °N, 0.00 °E | Updated 0 second ago

Overcast
Overcast
°F
Feels Like °F
N
Wind Variable Wind from North
Gusts mph

Today
High -- | Low -- °F
--% Chance of Precip.
Yesterday
High -- | Low -- °F
Precip. -- in
Pressure 30.38 in
Visibility 4.0 miles
Clouds Scattered Clouds 2900 ft
Mostly Cloudy 3900 ft
Overcast 5000 ft
Dew Point Not available.
Humidity Not available.
Rainfall --
Snow Depth Not available.
6:48 AM 7:15 PM
Waning Crescent, 2% visible
SPECI KALB 262135Z COR 13005KT 4SM BR SCT029 BKN039 OVC050 03/M01 A3038 RMK AO2 RAB2057E35 P0002 T00281011 $
Pressure 30.38 in
Visibility 4.0 miles
Clouds Scattered Clouds 2900 ft
Mostly Cloudy 3900 ft
Overcast 5000 ft
Dew Point Not available.
Humidity Not available.
Rainfall --
Snow Depth Not available.
6:48 AM 7:15 PM
Waning Crescent, 2% visible
SPECI KALB 262135Z COR 13005KT 4SM BR SCT029 BKN039 OVC050 03/M01 A3038 RMK AO2 RAB2057E35 P0002 T00281011 $

Get Your Daily Forecast Email!

Thanks for signing up!

Be on the lookout for a verification email in your inbox.

You'll start receiving severe weather alerts in your inbox..

×

10-Day Weather Forecast

Almanac

Astronomy

Mar. 26, 2017 Rise Set
Actual Time
Civil Twilight
Nautical Twilight
Astronomical Twilight
Moon
Length of Visible Light
Length of Day
Tomorrow will be .
, % of the Moon is Illuminated

Today's Extremes

State Highs State Lows

Community

WunderPhotos

Upload Photos

1,962,540 photos uploaded!

WunderBlog® & News

Nearby

Air Quality

  Air Quality AQ Index Pollutant
Not available.

Snow Depth

Station Depth Elevation

Earthquake Activity

City Distance Mag. Time & Date
Minimum magnitude displayed is 2.5.

Earthquake Activity

City Distance Mag. Time & Date
Minimum magnitude displayed is 2.5.

Coastal Water Temperatures

Place Temperature

Stations

Nearby Weather Stations

Station Location Temp. Windchill Dew Point Humidity Wind Precip. Elev Updated Type
                   

Watches & Warnings

Freezing Rain Advisory
Issued: 4:50 PM EDT Mar. 26, 2017 – National Weather Service

... Freezing Rain Advisory remains in effect from 8 PM this
evening to 5 am EDT Monday...

* locations... the eastern Catskills of western Greene and western
Ulster counties.

* Hazard types... freezing rain.

* Ice accumulations... a few hundredths to around a tenth of an
inch.

* Timing... light freezing rain will develop tonight and
transition to plain rain in the early to mid morning.

* Impacts... hazardous travel due to icy roads. Isolated power
outages are possible.

* Temperatures... in the upper 20s to lower 30s.

Precautionary/preparedness actions...

A Freezing Rain Advisory means that periods of freezing rain or
freezing drizzle will cause travel difficulties. Be prepared for
slippery roads. Slow down and use caution while driving.